Time;durP1;ratioP1;P1;durP2;ratioP2;P2;SDS_P1;SDS_P2;PMS_P1;PMS_P2;Temp;Humidity;BMP_temperature;BMP_pressure;BME280_temperature;BME280_humidity;BME280_pressure;Samples;Min_cycle;Max_cycle;Signal;HPM_P1;HPM_P2
2022/02/28 00:00:26;;;;;;;4.50;3.40;;;;;;;3.56;92.57;95213.78;5075152;28;20479;-82
2022/02/28 00:02:53;;;;;;;4.03;3.70;;;;;;;3.59;91.88;95211.00;5074715;28;20428;-82
2022/02/28 00:05:20;;;;;;;4.70;4.30;;;;;;;3.63;91.63;95207.34;5075144;28;20435;-82
2022/02/28 00:07:50;;;;;;;4.40;3.90;;;;;;;3.64;91.52;95209.84;5074659;28;20514;-82
2022/02/28 00:10:18;;;;;;;4.20;3.90;;;;;;;3.58;91.35;95202.38;5074543;28;20823;-81
2022/02/28 00:12:45;;;;;;;8.70;4.70;;;;;;;3.55;91.74;95199.97;5074902;28;20438;-82
2022/02/28 00:15:14;;;;;;;4.95;4.18;;;;;;;3.61;92.24;95206.59;5074780;28;20431;-82
2022/02/28 00:21:23;;;;;;;5.40;3.43;;;;;;;3.60;90.74;95208.34;5062290;28;21019;-81
2022/02/28 00:23:52;;;;;;;3.50;3.20;;;;;;;3.64;91.07;95209.00;5073710;28;20953;-81
2022/02/28 00:26:19;;;;;;;3.70;3.40;;;;;;;3.68;91.40;95198.38;5073875;28;20514;-82
2022/02/28 00:28:45;;;;;;;4.23;3.93;;;;;;;3.69;90.86;95197.47;5074105;28;20487;-81
2022/02/28 00:31:12;;;;;;;4.00;3.70;;;;;;;3.66;90.32;95192.44;5074127;28;20435;-80
2022/02/28 00:33:39;;;;;;;4.00;3.70;;;;;;;3.74;90.23;95200.66;5074273;28;20781;-82
2022/02/28 00:36:26;;;;;;;4.27;3.87;;;;;;;3.73;89.84;95190.34;5055812;28;20441;-82
2022/02/28 00:38:55;;;;;;;5.00;4.50;;;;;;;3.70;89.42;95191.34;5074297;28;20517;-81
2022/02/28 00:41:21;;;;;;;5.10;3.73;;;;;;;3.67;88.70;95183.72;5074103;28;20449;-82
2022/02/28 00:43:48;;;;;;;14.77;5.20;;;;;;;3.74;89.01;95192.88;5074285;28;20425;-81
2022/02/28 00:46:16;;;;;;;4.80;4.40;;;;;;;3.80;88.93;95188.28;5074004;28;20447;-82
2022/02/28 00:48:43;;;;;;;5.10;4.43;;;;;;;3.86;89.61;95181.00;5073663;28;20471;-82
2022/02/28 00:51:09;;;;;;;5.40;4.90;;;;;;;3.87;89.12;95180.09;5074062;28;20436;-82
2022/02/28 00:53:36;;;;;;;5.17;4.67;;;;;;;3.92;88.62;95178.06;5073706;28;20446;-81
2022/02/28 00:56:05;;;;;;;5.40;4.90;;;;;;;3.94;89.00;95180.59;5074022;28;20432;-82
2022/02/28 00:58:32;;;;;;;4.80;4.40;;;;;;;3.93;89.29;95179.75;5074138;28;20455;-82
2022/02/28 01:00:59;;;;;;;5.10;4.70;;;;;;;3.89;89.70;95172.22;5073549;28;20447;-81
2022/02/28 01:03:26;;;;;;;4.47;4.07;;;;;;;3.94;90.08;95173.63;5073640;28;20440;-82
2022/02/28 01:05:53;;;;;;;4.70;4.30;;;;;;;3.92;89.85;95170.28;5073536;28;20429;-83
2022/02/28 01:08:21;;;;;;;5.23;4.80;;;;;;;3.90;90.51;95161.75;5073678;28;20469;-83
2022/02/28 01:10:48;;;;;;;7.07;5.00;;;;;;;3.87;90.35;95158.47;5073429;28;20440;-82
2022/02/28 01:16:38;;;;;;;7.87;5.70;;;;;;;3.91;91.05;95159.97;5072690;28;20480;-82
2022/02/28 01:19:05;;;;;;;5.80;5.30;;;;;;;3.89;90.72;95156.63;5072540;28;20450;-81
2022/02/28 01:21:31;;;;;;;5.87;5.37;;;;;;;3.89;90.90;95156.63;5073629;28;20483;-82
2022/02/28 01:23:58;;;;;;;5.00;4.60;;;;;;;3.85;89.85;95149.94;5054874;28;20457;-81
2022/02/28 01:33:11;;;;;;;4.73;4.33;;;;;;;3.75;90.17;95146.97;5072633;28;20431;-81
2022/02/28 01:35:38;;;;;;;5.73;4.83;;;;;;;3.78;90.74;95148.59;5073143;28;20832;-82
2022/02/28 01:38:06;;;;;;;6.03;4.93;;;;;;;3.74;89.93;95142.72;5073092;28;20455;-81
2022/02/28 01:40:33;;;;;;;7.23;4.40;;;;;;;3.72;89.14;95140.19;5073742;28;20464;-81
2022/02/28 01:43:00;;;;;;;4.90;4.20;;;;;;;3.64;89.59;95139.78;5073351;28;20818;-82
2022/02/28 01:45:27;;;;;;;10.40;5.30;;;;;;;3.65;89.16;95143.22;5071398;28;20444;-81
2022/02/28 01:47:56;;;;;;;13.37;6.60;;;;;;;3.63;89.86;95139.88;5073529;28;20489;-81
2022/02/28 01:50:26;;;;;;;9.20;7.07;;;;;;;3.62;89.47;95138.19;5071651;28;20448;-81
2022/02/28 01:52:53;;;;;;;16.83;9.47;;;;;;;3.59;88.70;95136.59;5037994;28;20448;-82
2022/02/28 01:55:22;;;;;;;9.40;6.50;;;;;;;3.58;88.95;95131.50;5073632;28;20440;-81
2022/02/28 01:57:50;;;;;;;5.37;4.97;;;;;;;3.54;89.25;95127.41;5073194;28;20443;-81
2022/02/28 02:00:20;;;;;;;5.40;4.90;;;;;;;3.46;88.85;95121.75;5038107;28;20440;-82
2022/02/28 02:02:47;;;;;;;4.70;4.40;;;;;;;3.42;88.84;95126.28;5073213;28;20431;-81
2022/02/28 02:05:14;;;;;;;5.67;5.07;;;;;;;3.42;88.52;95129.72;5073263;28;20799;-81
2022/02/28 02:11:05;;;;;;;4.43;4.13;;;;;;;3.34;88.52;95123.25;5071921;28;20799;-81
2022/02/28 02:13:32;;;;;;;4.30;3.87;;;;;;;3.38;89.31;95119.59;5072880;28;20915;-81
2022/02/28 02:16:00;;;;;;;5.60;4.90;;;;;;;3.39;89.76;95118.66;5073184;28;20453;-83
2022/02/28 02:18:27;;;;;;;6.83;4.70;;;;;;;3.28;89.74;95127.03;5073204;28;20461;-81
2022/02/28 02:20:55;;;;;;;4.97;4.53;;;;;;;3.25;89.70;95118.56;5073236;28;20499;-82
2022/02/28 02:23:23;;;;;;;6.30;5.73;;;;;;;3.25;89.86;95118.56;5072671;28;20459;-82
2022/02/28 02:25:50;;;;;;;8.87;6.77;;;;;;;3.16;88.89;95108.66;5072848;28;20447;-82
2022/02/28 02:28:20;;;;;;;6.40;5.35;;;;;;;3.10;88.42;95127.97;5072727;28;20471;-81
2022/02/28 02:30:49;;;;;;;7.60;6.77;;;;;;;2.97;88.73;95124.34;5074780;28;20193;-81
2022/02/28 02:36:40;;;;;;;6.70;5.77;;;;;;;2.71;89.90;95110.97;5075552;28;20426;-81
2022/02/28 02:39:07;;;;;;;6.32;5.82;;;;;;;2.41;91.19;95104.75;5076415;28;20832;-82
2022/02/28 02:41:34;;;;;;;5.25;4.78;;;;;;;2.18;92.82;95109.28;5076597;28;20194;-82
2022/02/28 02:44:01;;;;;;;5.80;4.43;;;;;;;2.05;93.73;95102.19;5076583;28;20552;-82
2022/02/28 02:46:47;;;;;;;5.78;5.28;;;;;;;1.88;94.95;95099.56;5076671;28;20196;-82
2022/02/28 02:49:14;;;;;;;5.68;5.18;;;;;;;1.79;95.49;95093.09;5076388;28;20212;-83
2022/02/28 02:51:43;;;;;;;4.70;4.40;;;;;;;1.68;95.69;95093.59;5076257;28;20534;-82
2022/02/28 02:54:11;;;;;;;5.03;4.63;;;;;;;1.72;96.12;95094.28;5077872;28;20237;-82
2022/02/28 02:56:38;;;;;;;11.52;6.70;;;;;;;1.73;96.12;95091.59;5078300;28;20194;-82
2022/02/28 02:59:05;;;;;;;4.47;4.07;;;;;;;1.77;96.03;95098.34;5078583;28;20213;-82
2022/02/28 03:01:32;;;;;;;7.82;5.35;;;;;;;1.81;95.43;95099.88;5076399;28;20220;-82
2022/02/28 03:03:59;;;;;;;4.72;4.22;;;;;;;1.73;95.38;95094.19;5076321;28;20222;-82
2022/02/28 03:06:27;;;;;;;4.20;3.90;;;;;;;1.71;95.30;95092.59;5040678;28;20575;-81
2022/02/28 03:08:56;;;;;;;3.92;3.53;;;;;;;1.69;95.62;95092.66;5075680;28;20681;-82
2022/02/28 03:11:23;;;;;;;4.00;3.70;;;;;;;1.67;95.40;95110.00;5076223;28;20219;-82
2022/02/28 03:13:50;;;;;;;4.55;4.15;;;;;;;1.69;95.60;95115.94;5075653;28;20842;-82
2022/02/28 03:16:17;;;;;;;4.65;4.35;;;;;;;1.66;96.01;95105.75;5075996;28;20194;-82
2022/02/28 03:18:44;;;;;;;5.75;5.25;;;;;;;1.70;95.60;95112.44;5075620;28;20683;-82
2022/02/28 03:21:11;;;;;;;7.72;6.07;;;;;;;1.79;95.71;95106.03;5075996;28;20237;-81
2022/02/28 03:23:38;;;;;;;6.25;5.65;;;;;;;1.84;95.01;95115.25;5075924;28;20209;-82
2022/02/28 03:26:07;;;;;;;3.60;3.30;;;;;;;1.82;94.17;95109.31;5075559;28;20194;-82
2022/02/28 03:35:17;;;;;;;4.60;4.05;;;;;;;1.93;93.71;95116.53;5074486;28;20262;-83
2022/02/28 03:37:44;;;;;;;5.75;4.50;;;;;;;1.94;93.79;95112.22;5040648;28;20204;-83
2022/02/28 03:40:12;;;;;;;4.50;3.47;;;;;;;1.96;93.29;95118.16;5075598;28;20285;-82
2022/02/28 03:42:42;;;;;;;3.75;3.40;;;;;;;1.96;93.02;95118.97;5076040;28;20190;-82
2022/02/28 03:51:52;;;;;;;4.53;3.88;;;;;;;2.16;92.10;95133.56;5074462;28;20200;-83
2022/02/28 03:54:19;;;;;;;4.90;3.22;;;;;;;2.13;91.92;95137.16;5074949;28;20193;-82
2022/02/28 03:56:46;;;;;;;5.40;3.42;;;;;;;2.19;92.17;95146.38;5074884;28;20208;-82
2022/02/28 03:59:14;;;;;;;4.53;3.83;;;;;;;2.13;91.92;95138.91;5077462;28;20206;-83
2022/02/28 04:01:42;;;;;;;4.95;4.55;;;;;;;1.98;91.70;95122.34;5075447;28;20193;-83
2022/02/28 04:04:10;;;;;;;4.07;3.67;;;;;;;1.96;91.55;95141.44;5076003;28;20210;-81
2022/02/28 04:06:37;;;;;;;3.35;3.15;;;;;;;1.95;92.43;95135.41;5076018;28;20457;-82
2022/02/28 04:09:05;;;;;;;3.72;3.42;;;;;;;1.76;93.12;95138.06;5075851;28;20221;-83
2022/02/28 04:11:33;;;;;;;4.78;3.90;;;;;;;1.76;92.82;95132.03;5074546;28;20198;-81
2022/02/28 04:14:00;;;;;;;4.07;3.25;;;;;;;1.84;93.58;95138.53;5075178;28;20272;-82
2022/02/28 04:16:28;;;;;;;3.00;2.80;;;;;;;1.83;93.36;95144.63;5075135;28;20187;-82
2022/02/28 04:18:55;;;;;;;4.13;3.72;;;;;;;1.81;92.83;95135.25;5075324;28;20232;-83
2022/02/28 04:21:23;;;;;;;3.55;3.35;;;;;;;1.78;93.35;95144.00;5074631;28;20722;-81
2022/02/28 04:23:51;;;;;;;4.68;2.90;;;;;;;1.76;93.70;95143.22;5074140;28;20247;-82
2022/02/28 04:26:18;;;;;;;3.00;2.80;;;;;;;1.68;94.29;95140.13;5075796;28;20197;-83
2022/02/28 04:28:45;;;;;;;4.30;3.90;;;;;;;1.65;94.31;95137.69;5074287;28;20224;-83
2022/02/28 04:31:12;;;;;;;4.88;3.70;;;;;;;1.63;94.33;95147.28;5074373;28;20613;-82
2022/02/28 04:33:41;;;;;;;10.30;5.65;;;;;;;1.60;94.98;95147.41;5056060;28;20204;-82
2022/02/28 04:36:08;;;;;;;8.13;5.25;;;;;;;1.67;95.44;95146.22;5072240;28;20214;-82
2022/02/28 04:41:56;;;;;;;8.65;7.10;;;;;;;1.64;96.00;95148.94;5073411;28;20220;-81
2022/02/28 04:44:23;;;;;;;6.07;5.47;;;;;;;1.62;96.13;95145.59;5073807;28;20627;-80
2022/02/28 04:46:50;;;;;;;5.10;4.60;;;;;;;1.67;96.13;95145.38;5074238;28;20216;-81
2022/02/28 04:49:18;;;;;;;6.15;5.03;;;;;;;1.72;96.56;95148.59;5073900;28;20210;-82
2022/02/28 04:51:45;;;;;;;4.25;3.78;;;;;;;1.75;96.63;95157.06;5074400;28;20191;-81
2022/02/28 04:54:12;;;;;;;4.05;3.70;;;;;;;1.79;96.49;95158.59;5055385;28;20206;-83
2022/02/28 04:56:39;;;;;;;4.47;3.85;;;;;;;1.76;95.89;95152.75;5073918;28;20265;-82
2022/02/28 04:59:06;;;;;;;4.38;3.95;;;;;;;1.86;96.13;95162.56;5073641;28;20566;-81
2022/02/28 05:01:34;;;;;;;3.97;3.67;;;;;;;2.01;96.03;95170.53;5073539;28;20199;-82
2022/02/28 05:04:01;;;;;;;9.45;5.35;;;;;;;2.12;95.94;95168.28;5073800;28;20554;-82
2022/02/28 05:06:29;;;;;;;7.72;5.40;;;;;;;2.14;96.14;95158.69;5073577;28;20206;-82
2022/02/28 05:08:56;;;;;;;5.68;4.32;;;;;;;2.26;95.75;95171.03;5073418;28;20220;-82
2022/02/28 05:11:23;;;;;;;15.87;8.77;;;;;;;2.31;94.77;95166.47;5073696;28;20193;-81
2022/02/28 05:13:50;;;;;;;8.73;5.67;;;;;;;2.37;94.03;95180.91;5071777;28;20442;-83
2022/02/28 05:19:45;;;;;;;8.33;4.00;;;;;;;2.42;93.07;95179.75;5073696;28;20440;-82
2022/02/28 05:22:13;;;;;;;3.95;3.60;;;;;;;2.39;92.90;95185.09;5073719;28;20569;-82
2022/02/28 05:24:40;;;;;;;6.90;5.27;;;;;;;2.38;92.51;95187.75;5073919;28;20199;-82
2022/02/28 05:27:09;;;;;;;11.60;7.50;;;;;;;2.34;92.71;95192.25;5073965;28;20441;-83
2022/02/28 05:29:37;;;;;;;11.45;7.15;;;;;;;2.36;92.56;95190.41;5073246;28;20569;-84
2022/02/28 05:32:05;;;;;;;8.30;6.20;;;;;;;2.36;92.75;95194.75;5073625;28;20256;-81
2022/02/28 05:34:32;;;;;;;11.25;5.38;;;;;;;2.37;92.76;95194.69;5073294;28;20206;-83
2022/02/28 05:36:58;;;;;;;13.60;7.33;;;;;;;2.31;92.74;95196.69;5054942;28;20210;-83
2022/02/28 05:39:27;;;;;;;13.50;7.38;;;;;;;2.36;93.48;95198.19;5074119;28;20432;-82
2022/02/28 05:55:25;;;;;;;8.23;5.80;;;;;;;2.42;93.11;95202.22;5053383;28;20173;-81
2022/02/28 05:57:52;;;;;;;9.13;5.23;;;;;;;2.44;93.09;95213.34;5053179;28;20300;-84
2022/02/28 06:00:19;;;;;;;7.72;4.75;;;;;;;2.56;93.65;95207.56;5054443;28;20460;-83
2022/02/28 06:02:48;;;;;;;15.32;8.18;;;;;;;2.65;94.24;95206.31;5053461;28;20286;-84
2022/02/28 06:05:15;;;;;;;20.37;9.23;;;;;;;2.71;93.02;95212.00;5055047;28;20256;-84
2022/02/28 06:11:05;;;;;;;13.20;8.20;;;;;;;2.77;92.26;95213.47;5057621;28;20474;-82
2022/02/28 06:13:32;;;;;;;11.87;6.43;;;;;;;2.77;91.82;95218.63;5057396;28;20197;-84
2022/02/28 06:15:59;;;;;;;11.10;4.93;;;;;;;2.79;91.96;95214.22;5057808;28;20448;-85
2022/02/28 06:18:26;;;;;;;5.60;3.90;;;;;;;2.85;91.46;95220.84;5056754;28;20804;-83
2022/02/28 06:20:53;;;;;;;8.77;3.83;;;;;;;2.86;91.69;95215.59;5055427;28;20486;-85
2022/02/28 06:23:20;;;;;;;20.23;4.57;;;;;;;2.87;91.24;95219.84;5056940;28;20459;-84
2022/02/28 06:25:47;;;;;;;4.60;3.90;;;;;;;2.92;91.35;95225.66;5056213;28;20453;-84
2022/02/28 06:28:20;;;;;;;13.60;4.97;;;;;;;2.95;92.11;95222.09;5055355;28;20199;-85
2022/02/28 06:30:47;;;;;;;6.30;4.40;;;;;;;4.89;100.00;95223.72;5057100;28;20446;-85
2022/02/28 06:33:14;;;;;;;11.33;5.13;;;;;;;4.46;100.00;95232.28;5057187;28;20449;-87
2022/02/28 06:35:44;;;;;;;6.80;4.60;;;;;;;4.21;93.94;95231.00;5057758;28;20454;-86
2022/02/28 06:38:12;;;;;;;5.40;4.30;;;;;;;4.06;90.19;95233.63;5057169;28;20448;-82
2022/02/28 06:40:39;;;;;;;6.70;4.70;;;;;;;3.92;88.70;95226.56;5057115;28;20844;-83
2022/02/28 06:43:06;;;;;;;5.90;4.30;;;;;;;3.87;89.19;95241.53;5056567;28;20456;-82
2022/02/28 06:45:34;;;;;;;6.63;4.47;;;;;;;3.80;88.45;95237.59;5056413;28;20540;-83
2022/02/28 06:48:01;;;;;;;4.93;4.33;;;;;;;3.80;89.17;95235.84;5038028;28;20960;-83
2022/02/28 06:50:28;;;;;;;5.43;4.50;;;;;;;3.86;88.83;95234.69;5038013;28;20477;-83
2022/02/28 06:59:39;;;;;;;15.13;7.60;;;;;;;4.70;99.53;95217.91;5075147;28;20482;-82
2022/02/28 07:02:07;;;;;;;13.70;7.00;;;;;;;4.63;89.38;95232.19;5075720;28;20532;-83
2022/02/28 07:04:34;;;;;;;13.10;5.97;;;;;;;4.55;86.83;95229.16;5075680;28;20441;-83
2022/02/28 07:07:01;;;;;;;11.20;4.33;;;;;;;4.60;86.49;95237.53;5076162;28;20793;-84
2022/02/28 07:12:50;;;;;;;8.17;5.40;;;;;;;4.52;86.32;95231.94;5075081;28;20463;-83
2022/02/28 07:15:18;;;;;;;13.60;8.00;;;;;;;4.49;85.02;95230.34;5075616;28;20437;-82
2022/02/28 07:17:46;;;;;;;13.97;9.80;;;;;;;4.55;85.12;95234.34;5074497;28;20437;-83
2022/02/28 07:20:13;;;;;;;7.17;6.17;;;;;;;4.64;85.22;95236.47;5075705;28;20813;-81
2022/02/28 07:32:46;;;;;;;5.57;4.60;;;;;;;4.54;83.30;95238.72;5074750;28;20470;-83
2022/02/28 07:35:13;;;;;;;4.50;4.10;;;;;;;4.54;83.19;95238.72;5075793;28;20528;-83
2022/02/28 07:37:40;;;;;;;11.43;6.07;;;;;;;4.51;82.85;95238.88;5075585;28;20436;-83
2022/02/28 07:40:08;;;;;;;5.33;4.63;;;;;;;4.57;82.76;95240.28;5056871;28;20441;-83
2022/02/28 07:49:20;;;;;;;8.67;5.87;;;;;;;4.25;84.02;95248.09;5075142;28;20542;-84
2022/02/28 07:51:47;;;;;;;30.87;20.03;;;;;;;4.11;84.57;95247.19;5074970;28;20520;-82
2022/02/28 07:54:14;;;;;;;36.13;19.80;;;;;;;4.04;86.17;95244.91;5074887;28;20433;-83
2022/02/28 07:56:41;;;;;;;33.17;21.23;;;;;;;4.13;86.82;95247.94;5075006;28;20499;-84
2022/02/28 08:09:16;;;;;;;10.33;9.23;;;;;;;4.31;87.59;95252.97;5074533;28;20483;-84
2022/02/28 08:11:43;;;;;;;9.80;7.00;;;;;;;4.38;86.56;95252.66;5073864;28;20457;-84
2022/02/28 08:14:11;;;;;;;11.10;8.17;;;;;;;4.45;86.57;95248.78;5074558;28;20498;-85
2022/02/28 08:16:38;;;;;;;12.67;8.70;;;;;;;4.54;87.06;95248.25;5075185;28;20448;-83
2022/02/28 08:19:05;;;;;;;8.40;7.40;;;;;;;4.65;86.68;95245.94;5039702;28;20467;-84
2022/02/28 08:21:32;;;;;;;9.30;7.87;;;;;;;4.79;85.93;95252.94;5075034;28;20482;-84
2022/02/28 08:23:59;;;;;;;11.70;7.93;;;;;;;4.96;86.75;95242.44;5074859;28;20440;-85
2022/02/28 08:26:27;;;;;;;13.77;9.07;;;;;;;5.16;85.28;95255.09;5055990;28;20440;-83
2022/02/28 08:28:54;;;;;;;10.97;9.00;;;;;;;5.23;83.38;95258.22;5074036;28;20433;-84
2022/02/28 08:31:21;;;;;;;12.90;8.70;;;;;;;5.16;82.34;95251.66;5074574;28;20444;-81
2022/02/28 08:33:48;;;;;;;17.13;13.90;;;;;;;5.11;81.26;95256.31;5074881;28;20803;-85
2022/02/28 08:36:16;;;;;;;19.23;10.43;;;;;;;4.98;80.50;95249.22;5074559;28;20527;-87
2022/02/28 08:38:42;;;;;;;29.93;16.37;;;;;;;4.85;80.81;95237.81;5073461;28;20460;-84
2022/02/28 08:41:09;;;;;;;20.07;12.43;;;;;;;4.80;81.32;95255.44;5074185;28;20448;-87
2022/02/28 08:43:38;;;;;;;12.93;10.10;;;;;;;4.66;81.49;95247.59;5075592;28;20459;-85
2022/02/28 08:46:11;;;;;;;7.57;6.17;;;;;;;4.78;82.18;95252.09;5074750;28;20433;-85
2022/02/28 08:48:38;;;;;;;10.70;7.47;;;;;;;4.80;80.71;95252.00;5075077;28;20436;-88
2022/02/28 08:51:05;;;;;;;8.03;5.83;;;;;;;4.91;81.12;95254.81;5074838;28;20480;-86
2022/02/28 08:53:32;;;;;;;6.23;4.37;;;;;;;5.07;79.75;95255.66;5074757;28;20454;-87
2022/02/28 08:55:59;;;;;;;6.10;4.37;;;;;;;5.17;78.23;95253.34;5074315;28;20500;-82
2022/02/28 08:58:26;;;;;;;7.20;5.60;;;;;;;5.46;77.42;95264.66;5055400;28;20479;-81
2022/02/28 09:00:54;;;;;;;8.20;6.73;;;;;;;5.39;74.04;95269.38;5073902;28;20441;-84
2022/02/28 09:03:21;;;;;;;4.97;4.40;;;;;;;5.34;71.19;95274.03;5073851;28;20931;-85
2022/02/28 09:05:49;;;;;;;34.00;20.70;;;;;;;5.56;74.56;95271.00;5055495;28;20428;-82
2022/02/28 09:08:16;;;;;;;15.40;9.73;;;;;;;5.50;74.04;95274.81;5073629;28;20472;-85
2022/02/28 09:10:43;;;;;;;22.27;12.57;;;;;;;5.55;72.62;95271.94;5074099;28;20487;-83
2022/02/28 09:13:10;;;;;;;12.77;7.27;;;;;;;5.70;75.28;95278.00;5056069;28;20445;-86
2022/02/28 09:15:37;;;;;;;4.60;4.20;;;;;;;5.87;71.95;95288.25;5074480;28;20804;-89
2022/02/28 09:18:07;;;;;;;6.57;5.23;;;;;;;6.05;71.19;95286.31;5074470;28;20453;-87
2022/02/28 09:20:34;;;;;;;5.23;4.50;;;;;;;5.73;70.43;95281.25;5073037;28;20576;-83
2022/02/28 09:23:01;;;;;;;6.37;4.80;;;;;;;5.92;70.31;95288.00;5074481;28;20467;-83
2022/02/28 09:25:28;;;;;;;6.90;5.30;;;;;;;6.00;70.83;95294.41;5067091;28;20438;-83
2022/02/28 09:27:55;;;;;;;9.80;7.10;;;;;;;6.12;69.92;95291.06;5053394;28;20468;-83
2022/02/28 09:30:22;;;;;;;9.60;6.87;;;;;;;6.16;71.13;95297.78;5053282;28;20481;-83
2022/02/28 09:46:30;;;;;;;7.77;5.30;;;;;;;5.81;68.64;95294.66;5053333;28;20410;-84
2022/02/28 09:48:57;;;;;;;5.03;4.53;;;;;;;5.99;70.09;95289.28;5053601;28;20999;-85
2022/02/28 09:51:24;;;;;;;4.80;4.40;;;;;;;6.14;71.20;95290.97;5053924;28;20488;-87
2022/02/28 09:53:51;;;;;;;4.40;4.00;;;;;;;6.33;72.21;95290.66;5054431;28;20449;-87
2022/02/28 09:56:20;;;;;;;6.70;4.50;;;;;;;6.49;69.52;95283.59;5053949;28;20507;-86
2022/02/28 09:58:47;;;;;;;6.23;5.63;;;;;;;6.59;69.48;95289.06;5053992;28;20465;-84
2022/02/28 10:01:14;;;;;;;5.43;4.87;;;;;;;6.69;69.23;95282.34;5053594;28;20430;-85
2022/02/28 10:03:43;;;;;;;4.23;3.93;;;;;;;6.83;68.42;95283.13;5053680;28;20567;-83
2022/02/28 10:06:10;;;;;;;4.83;4.37;;;;;;;6.98;68.07;95283.09;5053431;28;20525;-80
2022/02/28 10:08:41;;;;;;;6.77;4.80;;;;;;;7.14;66.52;95284.59;5053302;28;20492;-83
2022/02/28 10:11:24;;;;;;;5.63;4.70;;;;;;;7.23;66.46;95290.16;5053228;28;20815;-83
2022/02/28 10:13:52;;;;;;;11.33;7.70;;;;;;;7.19;67.47;95278.25;5053147;28;20433;-83
2022/02/28 10:16:29;;;;;;;13.90;9.80;;;;;;;7.16;66.53;95276.66;5052993;28;20516;-83
2022/02/28 10:18:58;;;;;;;15.00;10.40;;;;;;;6.81;66.36;95276.34;5053296;28;20437;-83
2022/02/28 10:21:40;;;;;;;6.93;6.20;;;;;;;6.46;67.55;95283.78;5068440;28;21343;-83
2022/02/28 10:24:09;;;;;;;10.87;8.93;;;;;;;6.15;68.81;95285.69;5073818;28;20445;-82
2022/02/28 10:36:45;;;;;;;11.03;8.93;;;;;;;4.64;73.96;95280.63;5072071;28;20428;-83
2022/02/28 10:39:12;;;;;;;11.13;8.20;;;;;;;4.40;75.85;95269.00;5073093;28;20467;-84
2022/02/28 10:41:42;;;;;;;13.63;6.30;;;;;;;4.09;76.00;95272.41;5072638;28;20425;-83
2022/02/28 10:44:12;;;;;;;9.07;6.20;;;;;;;4.02;78.80;95271.88;5070831;28;20932;-83
2022/02/28 10:46:42;;;;;;;8.43;6.80;;;;;;;3.93;79.65;95267.16;5072759;28;20887;-84
2022/02/28 10:49:15;;;;;;;13.17;8.40;;;;;;;3.85;81.14;95254.59;5072684;28;20482;-83
2022/02/28 10:51:52;;;;;;;15.20;7.73;;;;;;;3.88;82.08;95267.41;5077116;28;20487;-85
2022/02/28 10:54:25;;;;;;;25.40;10.50;;;;;;;3.74;81.35;95268.13;5096061;28;20483;-84
2022/02/28 10:57:04;;;;;;;17.03;7.60;;;;;;;3.56;80.14;95258.72;5096394;28;20452;-83
2022/02/28 10:59:34;;;;;;;14.43;7.77;;;;;;;3.50;81.72;95266.81;5095675;28;20444;-83
2022/02/28 11:02:01;;;;;;;10.67;6.20;;;;;;;3.43;80.84;95262.84;5096259;28;20429;-83
2022/02/28 11:04:33;;;;;;;9.07;5.67;;;;;;;3.35;80.17;95257.22;5096156;28;20447;-82
2022/02/28 11:07:02;;;;;;;10.43;5.30;;;;;;;3.26;81.06;95255.94;5096198;28;20435;-83
2022/02/28 11:22:58;;;;;;;22.83;10.30;;;;;;;3.33;81.09;95264.22;5035368;28;20508;-84
2022/02/28 11:25:25;;;;;;;22.83;13.63;;;;;;;3.29;81.27;95260.13;5055848;28;20943;-86
2022/02/28 11:27:54;;;;;;;17.70;10.20;;;;;;;3.39;81.13;95261.31;5056772;28;20445;-84
2022/02/28 11:30:24;;;;;;;7.33;6.37;;;;;;;3.40;79.73;95258.66;5056579;28;20905;-84
2022/02/28 11:32:54;;;;;;;10.50;6.83;;;;;;;3.29;81.33;95262.72;5055723;28;20441;-83
2022/02/28 11:35:53;;;;;;;8.10;6.10;;;;;;;3.34;81.65;95263.31;5057691;28;20796;-84
2022/02/28 11:38:46;;;;;;;15.37;9.50;;;;;;;3.26;83.36;95257.69;5056495;28;20789;-82
2022/02/28 11:41:16;;;;;;;5.63;5.00;;;;;;;3.17;82.39;95251.19;5055494;28;20481;-84
2022/02/28 11:43:46;;;;;;;8.10;5.73;;;;;;;3.13;82.48;95248.81;5073383;28;20441;-84
2022/02/28 11:46:19;;;;;;;9.40;5.73;;;;;;;3.25;82.82;95253.41;5057272;28;21175;-84
2022/02/28 11:48:50;;;;;;;8.40;5.90;;;;;;;3.38;82.39;95252.69;5075704;28;20531;-83
2022/02/28 12:01:29;;;;;;;6.13;4.40;;;;;;;4.53;74.27;95255.22;5074541;28;20962;-83
2022/02/28 12:04:11;;;;;;;6.77;5.80;;;;;;;4.70;74.19;95256.91;5074433;28;20440;-83
2022/02/28 12:06:54;;;;;;;11.50;7.60;;;;;;;4.90;74.85;95251.38;5074845;28;20441;-84
2022/02/28 12:09:38;;;;;;;12.30;5.63;;;;;;;4.66;72.65;95266.63;5075008;28;21036;-84
2022/02/28 12:12:13;;;;;;;8.17;5.73;;;;;;;4.07;74.21;95271.66;5074339;28;20526;-83
2022/02/28 12:15:23;;;;;;;5.63;4.60;;;;;;;3.92;75.97;95274.13;5074825;28;20450;-84
2022/02/28 12:18:09;;;;;;;10.33;5.33;;;;;;;3.74;75.87;95269.88;5077365;28;20454;-84
2022/02/28 12:20:43;;;;;;;11.80;6.93;;;;;;;3.47;77.88;95268.69;5074457;28;20957;-81
2022/02/28 12:23:25;;;;;;;8.90;5.73;;;;;;;3.04;79.38;95260.50;5075075;28;20530;-84
2022/02/28 12:26:10;;;;;;;11.20;8.47;;;;;;;3.05;81.02;95268.19;5074967;28;20436;-84
2022/02/28 12:28:43;;;;;;;13.90;7.93;;;;;;;3.06;81.98;95275.06;5074942;28;20440;-82
2022/02/28 12:31:12;;;;;;;8.17;6.53;;;;;;;3.07;81.81;95271.56;5074771;28;20537;-81
2022/02/28 12:34:01;;;;;;;7.67;5.97;;;;;;;3.21;80.97;95275.22;5074919;28;20429;-81
2022/02/28 12:36:30;;;;;;;6.83;5.63;;;;;;;3.30;79.79;95269.56;5074682;28;20944;-81
2022/02/28 12:39:00;;;;;;;4.17;3.83;;;;;;;3.43;78.93;95255.06;5074279;28;20433;-82
2022/02/28 12:41:29;;;;;;;16.73;8.70;;;;;;;3.56;79.70;95273.44;5074415;28;20440;-81
2022/02/28 12:43:59;;;;;;;9.60;5.40;;;;;;;3.62;76.57;95271.38;5073877;28;20440;-82
2022/02/28 12:46:28;;;;;;;10.30;8.60;;;;;;;3.88;76.75;95264.81;5074196;28;20510;-81
2022/02/28 12:48:55;;;;;;;13.67;8.40;;;;;;;4.13;74.44;95282.53;5073905;28;20812;-81
2022/02/28 12:51:26;;;;;;;13.00;9.07;;;;;;;4.16;76.27;95284.97;5074276;28;20484;-80
2022/02/28 12:54:01;;;;;;;10.00;7.00;;;;;;;4.17;74.32;95291.84;5073709;28;20974;-80
2022/02/28 12:56:28;;;;;;;16.70;9.00;;;;;;;4.17;73.46;95291.84;5073739;28;20445;-81
2022/02/28 12:58:56;;;;;;;17.30;9.30;;;;;;;4.16;73.66;95292.75;5074329;28;20441;-81
2022/02/28 13:01:24;;;;;;;9.57;6.93;;;;;;;4.16;73.87;95278.94;5055309;28;20471;-80
2022/02/28 13:03:53;;;;;;;13.27;8.30;;;;;;;4.21;72.19;95295.09;5074126;28;20433;-80
2022/02/28 13:16:27;;;;;;;9.27;5.93;;;;;;;3.85;74.82;95295.28;5073586;28;20526;-81
2022/02/28 13:19:06;;;;;;;6.00;5.17;;;;;;;3.79;73.09;95287.84;5073548;28;20795;-82
2022/02/28 13:21:35;;;;;;;10.60;6.83;;;;;;;3.57;75.36;95294.13;5073579;28;20513;-81
2022/02/28 13:24:08;;;;;;;32.00;21.17;;;;;;;3.58;77.37;95292.38;5038409;28;20484;-81
2022/02/28 13:29:57;;;;;;;23.03;13.73;;;;;;;3.16;79.67;95290.16;5072245;28;20842;-81
2022/02/28 13:32:26;;;;;;;17.13;9.47;;;;;;;3.11;80.88;95295.56;5053039;28;20995;-81
2022/02/28 13:34:58;;;;;;;5.90;5.20;;;;;;;2.90;80.24;95288.88;5052682;28;20444;-80
2022/02/28 13:37:26;;;;;;;6.30;5.60;;;;;;;2.72;79.93;95290.56;5053432;28;20214;-81
2022/02/28 13:39:56;;;;;;;5.50;4.83;;;;;;;2.67;80.05;95289.97;5053202;28;20436;-80
2022/02/28 13:42:26;;;;;;;7.20;5.37;;;;;;;2.61;81.71;95298.03;5072780;28;20530;-79
2022/02/28 13:45:07;;;;;;;4.70;4.20;;;;;;;2.49;81.69;95295.09;5072715;28;20434;-80
2022/02/28 13:47:39;;;;;;;9.52;6.55;;;;;;;2.52;82.61;95303.63;5038376;28;20443;-80
2022/02/28 13:50:08;;;;;;;22.30;10.75;;;;;;;2.57;82.98;95301.66;5072527;28;20196;-80
2022/02/28 13:52:37;;;;;;;11.50;8.20;;;;;;;2.48;83.08;95300.34;5071773;28;20230;-80
2022/02/28 13:55:07;;;;;;;13.07;8.43;;;;;;;2.52;83.54;95288.91;5071612;28;20453;-81
2022/02/28 13:57:37;;;;;;;7.38;6.18;;;;;;;2.41;83.92;95299.78;5071959;28;20225;-79
2022/02/28 14:00:09;;;;;;;5.37;4.40;;;;;;;2.28;82.84;95306.44;5071649;28;20201;-80
2022/02/28 14:02:55;;;;;;;5.95;5.35;;;;;;;2.14;83.50;95309.66;5071892;28;20483;-80
2022/02/28 14:05:22;;;;;;;12.18;6.25;;;;;;;2.24;83.21;95310.06;5073221;28;20192;-79
2022/02/28 14:07:57;;;;;;;10.93;7.82;;;;;;;2.27;84.15;95306.50;5073023;28;20192;-79
2022/02/28 14:10:25;;;;;;;5.07;4.37;;;;;;;2.29;82.79;95308.09;5072817;28;20702;-81
2022/02/28 14:12:52;;;;;;;11.67;7.90;;;;;;;2.27;83.39;95309.94;5073536;28;20854;-80
2022/02/28 14:15:23;;;;;;;10.93;7.10;;;;;;;2.15;83.47;95307.91;5073046;28;20450;-80
2022/02/28 14:17:56;;;;;;;12.33;8.97;;;;;;;2.26;83.72;95316.03;5072812;28;20525;-80
2022/02/28 14:20:24;;;;;;;11.15;8.32;;;;;;;2.33;83.69;95308.84;5072717;28;20438;-80
2022/02/28 14:23:05;;;;;;;14.20;8.40;;;;;;;2.55;84.35;95316.44;5054075;28;20199;-80